Custer, SD (57730)

11:16 AM MDT on August 25, 2016 (GMT -0600)
Hay Creek Road | | Change Station

Elev 5325 ft 43.70 °N, 103.67 °W | Updated 0 second ago

Mostly Cloudy
Mostly Cloudy
57.7 °F
Feels Like 57.7 °F
N
0.0
Wind Variable Wind from SSE
Gusts 0.0 mph

Today
High -- | Low -- °F
--% Chance of Precip.
Yesterday
High -- | Low -- °F
Precip. -- in
Pressure 30.19 in
Visibility 10.0 miles
Clouds Mostly Cloudy 2400 ft
Mostly Cloudy 3400 ft
Mostly Cloudy 7500 ft
Dew Point 45 °F
Humidity 62%
Rainfall 0.02 in
Snow Depth Not available.
6:10 AM 7:41 PM
Last Quarter, 44% visible
METAR KCUT 251653Z AUTO VRB03KT 10SM BKN024 BKN034 BKN075 14/06 A3032 RMK AO2 SLP224 T01390061
Pressure 30.19 in
Visibility 10.0 miles
Clouds Mostly Cloudy 2400 ft
Mostly Cloudy 3400 ft
Mostly Cloudy 7500 ft
Dew Point 45 °F
Humidity 62%
Rainfall 0.02 in
Snow Depth Not available.
6:10 AM 7:41 PM
Last Quarter, 44% visible
METAR KCUT 251653Z AUTO VRB03KT 10SM BKN024 BKN034 BKN075 14/06 A3032 RMK AO2 SLP224 T01390061

10-Day Weather Forecast

Almanac

Astronomy

Aug. 25, 2016 Rise Set
Actual Time
Civil Twilight
Nautical Twilight
Astronomical Twilight
Moon
Length of Visible Light
Length of Day
Tomorrow will be .
, % of the Moon is Illuminated

Today's Extremes

State Highs State Lows

Community

WunderPhotos

Upload Photos

1,934,877 photos uploaded!

WunderBlog® & News

Nearby

Air Quality

  Air Quality AQ Index Pollutant
Not available.

Snow Depth

Station Depth Elevation

Earthquake Activity

City Distance Mag. Time & Date
Minimum magnitude displayed is 2.5.

Coastal Water Temperatures

Place Temperature

Stations

Nearby Weather Stations

Station Location Temp. Windchill Dew Point Humidity Wind Precip. Elev Updated Type
                   

Watches & Warnings

There are currently no watches in effect.